SEBI

Registration No.

INH000000305

Ip Address Lookup

So far visitors:

customizable counter

TRIAL

TRIAL

SEND SMS FOR TRIAL

EQUITY - COMMODITY OR BOTH

TO

 09920033678

AND GET TRIAL

 

SEBI Registration No.: INH000000305 *****

* Commodity: 9500/month * Equity: 6000/month


* Gold Package: 7000 * Gold-Silver Package: 8100
*Crude-NG-Copper-Nickel Package: 6000


To See Past Performance, Click Here

For TRIAL / Registration,

click here

Past Performance >> Equity Tips
 
Search
 
Entry Start Date Entry End Date
Exit Start Date Exit End Date
Scrip Name Contract
Package
 

Packages: Precious Metals - Energy and Base Metals - Profit is calculated on basis of 1 lot per call

Package: Equity calls: Profit is calculated as follows:

1. If the scrip is in F & O then 1 lot is counted otherwise

2. Trade of Rs.1,50,000/- per call is counted.

 
Page: ( 1 2 3 4 5 6 7 8 9 10 11 12 13 14 15 16 17 18 19 20 21 22 23 24 25 26 27 28 29 30 31 32 33 34 35 36 37 38 39 40 41 42 43 44 45 46 47 48 49 50 51 52 53 54 55 56 57 58 59 60 61 62 63 64 65 66 67 68 69 70 71 72 73 74 75 76 77 78 79 80 81 82 83 84 85 86 87 88 89 90 91 92 93 94 95 96 97 98 99 100 101 102 103 104 105 106 107 108 109 110 ) [Current Page: 18]
Displaying 1276 to 1350   Calls
Entry Date Type Scrip Entry Price (Rs) T1
(Rs)
T2
(Rs)
T3
(Rs)
Stop Loss
(Rs)
Exit Date Exit Rate
(Rs)
Profit
(Rs)
 
12-07-17 Buy BANK NIFTY 23575 23625 23650 23675 23525 12-07-17 23650 6000.00 More
11-07-17 Buy JUB FOOD 1097 1107 1109 1111 1085 11-07-17 1106 4500.00 More
11-07-17 Buy PNB 155 160 164 170 150 11-07-17 150 -17500.00 More
10-07-17 Buy KOTAK BANK 970 974 978 985 962 10-07-17 962 -6400.00 More
10-07-17 Buy LUPIN 1140 1155 1175 1190 1110 11-07-17 1163 9200.00 More
07-07-17 Buy Delta Corp 167 172 178 180 163 14-07-17 162 -3000.00 More
07-07-17 Buy Central Bank 92 97 105 110 90 14-07-17 100 8000.00 More
07-07-17 Buy BEML 1555 1575 1595 1625/1800 1525 07-07-17 1588 19800.00 More
07-07-17 Buy SUN PHARMA 553 558 562 565 547 10-07-17 565 9600.00 More
06-07-17 Buy BANK NIFTY 23480 23525 23575 23600 23409 06-07-17 23570 7200.00 More
06-07-17 Buy JUB FOOD 1055 1062 1065 1070 06-07-17 1070 7500.00 More
06-07-17 Buy DALMIA BHARAT 2591 2625 2635 2650 2580 07-07-17 2621 9000.00 More
06-07-17 Buy VOLTAS 474.50 478.50 480.50 482 470 06-07-17 477 5000.00 More
06-07-17 Buy BF Utilities 404 415 425 450 399 06-07-17 399 -1250.00 More
05-07-17 Buy BATA 570 575 577 580 565 06-07-17 570 0.00 More
05-07-17 Buy ExideInd 225.50 228.50 230.50 232.50 222.50 05-07-17 229.50 16000.00 More
04-07-17 Buy GAIL 364 367 369 371 360 04-07-17 366 4000.00 More
04-07-17 Buy MCX 1092 1098 1102 1104 1080 04-07-17 1100 4000.00 More
04-07-17 Buy VEDL 255.50 262 266 270 250.50 06-07-17 264 29750.00 More
04-07-17 Buy DMART 837 845 850 860 829.60 04-07-17 829.60 -925.00 More
03-07-17 Buy BANK NIFTY 23270 23325 23350 23390 23190 03-07-17 23300 2400.00 More
03-07-17 Buy ABNuvo 1900 1912 1920 1960 1879 03-07-17 1929.90 11960.00 More
03-07-17 Buy Allahabad Bank 67 75 78 80 65 24-07-17 75 80000.00 More
03-07-17 Buy ARVIND 363 368 372 380 355 03-07-17 370 14000.00 More
30-06-17 Buy AXIS BANK 513 517 519 524 507 03-07-17 517 4800.00 More
30-06-17 Buy BPCL 633 643 653 660 617 04-07-17 660 32400.00 More
29-06-17 Buy INFY 935 960 975 1000 925 14-07-17 1000 32500.00 More
29-06-17 Buy RECL 173 177 180 185 170 30-06-17 170 -18000.00 More
29-06-17 Buy Nifty 9525 9545 9560 9575 9475 29-06-17 9575 7500.00 More
28-06-17 Buy ADANI ENT 135 138 140 141 132 12-07-17 141 48000.00 More
28-06-17 Buy ONGC 158.50 166 174 185 154.60 29-06-17 160.50 7500.00 More
28-06-17 Buy SIEMENS 1302 1320 1335 1350 1280 29-06-17 1320 9000.00 More
23-06-17 Buy AURO PHARMA 664 670 673 675 660 23-06-17 675 7700.00 More
22-06-17 Buy DIVIS LAB 644 654 658 662 629 03-07-17 662 14400.00 More
22-06-17 Buy EMAMI 1120 1135 1140 1144 1108 23-06-17 1108 -1200.00 More
22-06-17 Buy DLF 200.50 204 206 208/212 197.80 22-06-17 204 17500.00 More
21-06-17 Buy SUN PHARMA 530 542 552 562 505 22-06-17 540.50 7350.00 More
21-06-17 Buy INFY 943 975 980 990 924 22-06-17 971 14000.00 More
21-06-17 Buy GATI 134 137 139 140 130 23-06-17 130 -4000.00 More
21-06-17 Buy EQUITAS 160 163 165 166 157.50 21-06-17 157.50 -8000.00 More
20-06-17 Buy POWER GRID 213.75 217 219 221 209.75 20-06-17 209.75 -16000.00 More
20-06-17 Buy V GUARD 190 194 196 198 188 20-06-17 188 -6000.00 More
19-06-17 Buy COLGATE 1093 1100 1115 1160 1074 19-06-17 1109 11200.00 More
19-06-17 Buy KOTAK BANK 988 998 1005 1025 965 22-06-17 1004 12800.00 More
19-06-17 Buy Eveready 340 348 350 355 332 19-06-17 351 3300.00 More
19-06-17 Buy WABAG 718 725 735 745 705 19-06-17 745 3375.00 More
16-06-17 Buy IDEA 78 86 90 95 66 03-07-17 88 70000.00 More
16-06-17 Buy 561 568 578 590 545.50 21-06-17 545.50 -3100.00 More
16-06-17 Buy AURO PHARMA 650 660 665 675 629.60 16-06-17 663 9100.00 More
14-06-17 Buy DIVIS LAB 645 660 662 666 629.60 15-06-17 666 16800.00 More
14-06-17 Sell RBL BANK 507 500 495 490 514 14-06-17 503.20 3800.00 More
13-06-17 Buy BF Utilities 411 425 450 475 409 14-06-17 409 -500.00 More
13-06-17 Buy PHONIX MILL 455 470 490 500 425 15-06-17 469 2800.00 More
13-06-17 Buy IOC 425 429 435 445 415 15-06-17 415 -15000.00 More
12-06-17 Buy HINDALCO 200.50 205 207 210 194 22-06-17 194 -22750.00 More
12-06-17 Buy STAR 919 930 940 945 909 13-06-17 943 12000.00 More
12-06-17 Buy PEL 2955 2970 2985 3000 2924 12-06-17 2990 10500.00 More
12-06-17 Buy DMART 807 812 816 819 798 12-06-17 819 1500.00 More
12-06-17 Buy Edelweiss 205 210 212 215 201 12-06-17 201 -2000.00 More
09-06-17 Buy COLGATE 1074 1085 1090 1100 1054 15-06-17 1084 7000.00 More
09-06-17 Sell BPCL 706 704 702 700 712 09-06-17 702 4800.00 More
08-06-17 Buy HINDALCO 201 206 208 210 197 09-06-17 203 7000.00 More
08-06-17 Buy GUJ FLURO 710 725 730 735 680 09-06-17 735 5000.00 More
08-06-17 Buy ICICI PRU 425 430 435 445 418 09-06-17 435 2500.00 More
08-06-17 Buy COLGATE 1070 1085 1095 1100 1054 08-06-17 1085 10500.00 More
05-06-17 Buy YES BANK 1500 1515 1525 1575 1475 05-06-17 1525 8750.00 More
05-06-17 Buy UJIVAN 307.50 311 314 319 303 06-06-17 307 -600.00 More
05-06-17 Buy CANARA BANK 359 364 368 370 354 06-06-17 360 3084.00 More
05-06-17 Buy OBC 153 157 159 160 146 07-06-17 156 18000.00 More
02-06-17 Buy ADANI PORTS 356 365 370 375 346 05-06-17 365 22500.00 More
02-06-17 Buy HDFC 1596 1615 1620 1625 1570 02-06-17 1615 9500.00 More
02-06-17 Buy 1805 1825 1840 1870 1760 12-06-17 1760 -22500.00 More
02-06-17 Buy COLGATE 1047 1055 1065 1075 1031 02-06-17 1031 -11200.00 More
01-06-17 Buy INDIGO 1118 1129 1135 1144 1100 01-06-17 1135 10200.00 More
31-05-17 Buy Tata Chemicals 632 639 640 644 619 01-06-17 639 10500.00 More
Page wise profit 567144.00 Rs
Profit 25668517.00 Rs
TRIAL

TRIAL

SEND SMS FOR TRIAL

EQUITY - COMMODITY OR BOTH

TO

 09920033678

AND GET TRIAL